Terminal Aerodrome Forecast
Issued by NWS Sioux Falls, SD

Home | Current Version | Previous Version | Graphics & Text | Print | Product List | Glossary Off
Versions: 1 2 3 4 5 6 7 8 9 10 11 12 13 14 15

619
FTUS43 KFSD 230522
TAFHON
TAF
KHON 230522Z 2306/2406 19007KT P6SM SKC
     FM230900 19008KT P6SM SKC WS014/23040KT
     FM231300 18008KT P6SM FEW250
     FM232000 18014G20KT P6SM FEW250
     FM240200 15011KT P6SM SCT200=

USA.gov is the U.S. government's official web portal to all federal, state and local government web resources and services.